PWSweather.com
Personal Weather Stations
Station Observations
BC052CD
On, Kemptville, ON K0G 1J0

OnKemptville, ON K0G 1J0

Lat: 45.0173179, Lon: -75.6329355

Elevation: 295

Station Type: National Geographic 265NC

http://kerrentweather.ca

High Low Average
Temperature 57.2°F14.0°C 35.4°F1.9°C 48.8°F9.3°C
Dew Point 45.6°F7.6°C 24.3°F-4.3°C 34.0°F1.1°C
Winds 10.3 mph 16.6 kmh 0.8 mph 1.3 kmh 4.0 mph W6.4 kmh W
Wind Gusts 23.8 mph38.3 kmh 6.7 mph10.8 kmh 15.0 mph24.1 kmh
Humidity 88% 35% 58%
Pressure 29.82 in1009.8 mb 29.46 in997.6 mb -
Precipitation 0.08 in2.0 mm - -
Hour Temp Dew Point Humidity Winds Wind Gusts Pressure Precip Precip Rate Daily Precip Total
12:00 AM 52.9°F11.6°C 34.8°F1.6°C 50% 7.5 mph W12.1 kmh W 19.0 mph30.6 kmh 29.65 in1004.1 mb 0.00 in0.0 mm 0.00 in0.0 mm 0.00 in0.0 mm
12:15 AM 52.2°F11.2°C 36.0°F2.2°C 54% 5.6 mph W9.0 kmh W 16.2 mph26.1 kmh 29.64 in1003.7 mb 0.00 in0.0 mm 0.00 in0.0 mm 0.00 in0.0 mm
12:30 AM 51.6°F10.9°C 36.4°F2.4°C 56% 4.8 mph W7.7 kmh W 12.3 mph19.8 kmh 29.62 in1003.0 mb 0.00 in0.0 mm 0.00 in0.0 mm 0.00 in0.0 mm
12:45 AM 51.4°F10.8°C 36.7°F2.6°C 57% 6.7 mph W10.8 kmh W 15.1 mph24.3 kmh 29.61 in1002.7 mb 0.00 in0.0 mm 0.00 in0.0 mm 0.00 in0.0 mm
01:00 AM 51.3°F10.7°C 37.4°F3.0°C 59% 3.9 mph W6.3 kmh W 18.2 mph29.3 kmh 29.60 in1002.4 mb 0.00 in0.0 mm 0.00 in0.0 mm 0.00 in0.0 mm
01:15 AM 51.3°F10.7°C 37.9°F3.3°C 60% 3.9 mph W6.3 kmh W 13.4 mph21.6 kmh 29.59 in1002.0 mb 0.00 in0.0 mm 0.00 in0.0 mm 0.00 in0.0 mm
01:30 AM 51.3°F10.7°C 37.9°F3.3°C 60% 2.0 mph W3.2 kmh W 13.4 mph21.6 kmh 29.59 in1002.0 mb 0.00 in0.0 mm 0.00 in0.0 mm 0.00 in0.0 mm
01:45 AM 51.4°F10.8°C 37.6°F3.1°C 59% 4.8 mph W7.7 kmh W 14.3 mph23.0 kmh 29.58 in1001.7 mb 0.00 in0.0 mm 0.00 in0.0 mm 0.00 in0.0 mm
02:00 AM 51.3°F10.7°C 37.9°F3.3°C 60% 3.9 mph W6.3 kmh W 13.4 mph21.6 kmh 29.57 in1001.4 mb 0.00 in0.0 mm 0.00 in0.0 mm 0.00 in0.0 mm
02:15 AM 51.3°F10.7°C 37.9°F3.3°C 60% 3.9 mph W6.3 kmh W 13.4 mph21.6 kmh 29.56 in1001.0 mb 0.00 in0.0 mm 0.00 in0.0 mm 0.00 in0.0 mm
02:30 AM 51.6°F10.9°C 38.2°F3.4°C 60% 4.8 mph W7.7 kmh W 13.4 mph21.6 kmh 29.55 in1000.7 mb 0.00 in0.0 mm 0.00 in0.0 mm 0.00 in0.0 mm
02:45 AM 51.4°F10.8°C 38.9°F3.8°C 62% 6.7 mph W10.8 kmh W 15.1 mph24.3 kmh 29.55 in1000.7 mb 0.00 in0.0 mm 0.00 in0.0 mm 0.00 in0.0 mm
03:00 AM 50.5°F10.3°C 39.2°F4.0°C 65% 4.8 mph W7.7 kmh W 14.3 mph23.0 kmh 29.53 in1000.0 mb 0.00 in0.0 mm 0.00 in0.0 mm 0.00 in0.0 mm
03:15 AM 50.4°F10.2°C 39.4°F4.1°C 66% 2.8 mph W4.5 kmh W 11.5 mph18.5 kmh 29.52 in999.7 mb 0.00 in0.0 mm 0.00 in0.0 mm 0.00 in0.0 mm
03:30 AM 50.4°F10.2°C 40.2°F4.6°C 68% 5.6 mph W9.0 kmh W 18.2 mph29.3 kmh 29.52 in999.7 mb 0.00 in0.0 mm 0.00 in0.0 mm 0.00 in0.0 mm
03:45 AM 50.2°F10.1°C 40.4°F4.7°C 69% 3.9 mph W6.3 kmh W 21.8 mph35.1 kmh 29.51 in999.3 mb 0.00 in0.0 mm 0.00 in0.0 mm 0.00 in0.0 mm
04:00 AM 49.8°F9.9°C 41.2°F5.1°C 72% 6.7 mph W10.8 kmh W 21.0 mph33.8 kmh 29.51 in999.3 mb 0.01 in0.3 mm 0.01 in0.3 mm 0.01 in0.3 mm
04:15 AM 49.3°F9.6°C 41.7°F5.4°C 75% 4.8 mph W7.7 kmh W 13.4 mph21.6 kmh 29.51 in999.3 mb 0.01 in0.3 mm 0.00 in0.0 mm 0.01 in0.3 mm
04:30 AM 48.7°F9.3°C 41.9°F5.5°C 77% 2.8 mph W4.5 kmh W 13.4 mph21.6 kmh 29.50 in999.0 mb 0.04 in1.0 mm 0.12 in3.0 mm 0.04 in1.0 mm
04:45 AM 48.6°F9.2°C 42.4°F5.8°C 79% 2.8 mph W4.5 kmh W 10.3 mph16.6 kmh 29.49 in998.6 mb 0.04 in1.0 mm 0.00 in0.0 mm 0.04 in1.0 mm
05:00 AM 48.6°F9.2°C 43.3°F6.3°C 82% 4.8 mph W7.7 kmh W 11.5 mph18.5 kmh 29.49 in998.6 mb 0.04 in1.0 mm 0.00 in0.0 mm 0.05 in1.3 mm
05:15 AM 48.6°F9.2°C 43.6°F6.4°C 83% 3.9 mph W6.3 kmh W 13.4 mph21.6 kmh 29.48 in998.3 mb 0.04 in1.0 mm 0.00 in0.0 mm 0.05 in1.3 mm
05:30 AM 48.7°F9.3°C 44.1°F6.7°C 84% 2.8 mph W4.5 kmh W 21.0 mph33.8 kmh 29.48 in998.3 mb 0.03 in0.8 mm 0.00 in0.0 mm 0.07 in1.8 mm
05:45 AM 48.9°F9.4°C 44.6°F7.0°C 85% 4.8 mph W7.7 kmh W 14.3 mph23.0 kmh 29.48 in998.3 mb 0.03 in0.8 mm 0.00 in0.0 mm 0.07 in1.8 mm
06:00 AM 48.9°F9.4°C 44.9°F7.2°C 86% 7.5 mph W12.1 kmh W 12.3 mph19.8 kmh 29.46 in997.6 mb 0.01 in0.3 mm 0.00 in0.0 mm 0.07 in1.8 mm
06:15 AM 49.3°F9.6°C 45.6°F7.6°C 87% 4.8 mph W7.7 kmh W 12.3 mph19.8 kmh 29.46 in997.6 mb 0.01 in0.3 mm 0.00 in0.0 mm 0.07 in1.8 mm
06:30 AM 48.7°F9.3°C 45.0°F7.2°C 87% 7.5 mph W12.1 kmh W 13.4 mph21.6 kmh 29.46 in997.6 mb 0.00 in0.0 mm 0.00 in0.0 mm 0.07 in1.8 mm
06:45 AM 48.7°F9.3°C 45.3°F7.4°C 88% 3.9 mph W6.3 kmh W 17.1 mph27.5 kmh 29.47 in998.0 mb 0.00 in0.0 mm 0.00 in0.0 mm 0.07 in1.8 mm
07:00 AM 48.7°F9.3°C 45.3°F7.4°C 88% 3.9 mph W6.3 kmh W 13.4 mph21.6 kmh 29.47 in998.0 mb 0.00 in0.0 mm 0.00 in0.0 mm 0.07 in1.8 mm
07:15 AM 48.7°F9.3°C 45.0°F7.2°C 87% 6.7 mph W10.8 kmh W 13.4 mph21.6 kmh 29.48 in998.3 mb 0.00 in0.0 mm 0.00 in0.0 mm 0.07 in1.8 mm
07:30 AM 48.4°F9.1°C 44.7°F7.1°C 87% 8.7 mph W14.0 kmh W 17.1 mph27.5 kmh 29.49 in998.6 mb 0.00 in0.0 mm 0.00 in0.0 mm 0.07 in1.8 mm
07:45 AM 48.6°F9.2°C 44.6°F7.0°C 86% 5.6 mph W9.0 kmh W 14.3 mph23.0 kmh 29.50 in999.0 mb 0.00 in0.0 mm 0.00 in0.0 mm 0.07 in1.8 mm
08:00 AM 48.4°F9.1°C 44.1°F6.7°C 85% 5.6 mph W9.0 kmh W 12.3 mph19.8 kmh 29.50 in999.0 mb 0.00 in0.0 mm 0.00 in0.0 mm 0.07 in1.8 mm
08:15 AM 48.4°F9.1°C 43.8°F6.6°C 84% 4.8 mph W7.7 kmh W 14.3 mph23.0 kmh 29.50 in999.0 mb 0.00 in0.0 mm 0.00 in0.0 mm 0.07 in1.8 mm
08:30 AM 48.4°F9.1°C 43.5°F6.4°C 83% 4.8 mph W7.7 kmh W 14.3 mph23.0 kmh 29.51 in999.3 mb 0.00 in0.0 mm 0.00 in0.0 mm 0.07 in1.8 mm
08:45 AM 48.7°F9.3°C 43.5°F6.4°C 82% 4.8 mph W7.7 kmh W 15.1 mph24.3 kmh 29.52 in999.7 mb 0.00 in0.0 mm 0.00 in0.0 mm 0.07 in1.8 mm
09:00 AM 49.6°F9.8°C 43.4°F6.3°C 79% 10.3 mph W16.6 kmh W 17.1 mph27.5 kmh 29.52 in999.7 mb 0.00 in0.0 mm 0.00 in0.0 mm 0.07 in1.8 mm
09:15 AM 50.5°F10.3°C 43.3°F6.3°C 76% 8.7 mph W14.0 kmh W 21.8 mph35.1 kmh 29.52 in999.7 mb 0.01 in0.3 mm 0.04 in1.0 mm 0.08 in2.0 mm
09:30 AM 51.3°F10.7°C 42.9°F6.1°C 73% 5.6 mph W9.0 kmh W 22.9 mph36.9 kmh 29.53 in1000.0 mb 0.01 in0.3 mm 0.00 in0.0 mm 0.08 in2.0 mm
09:45 AM 52.0°F11.1°C 42.1°F5.6°C 69% 5.6 mph W9.0 kmh W 22.9 mph36.9 kmh 29.53 in1000.0 mb 0.01 in0.3 mm 0.00 in0.0 mm 0.08 in2.0 mm
10:00 AM 52.3°F11.3°C 41.3°F5.2°C 66% 5.6 mph W9.0 kmh W 21.0 mph33.8 kmh 29.54 in1000.3 mb 0.01 in0.3 mm 0.00 in0.0 mm 0.08 in2.0 mm
10:15 AM 52.5°F11.4°C 40.3°F4.6°C 63% 8.7 mph W14.0 kmh W 21.0 mph33.8 kmh 29.55 in1000.7 mb 0.00 in0.0 mm 0.00 in0.0 mm 0.08 in2.0 mm
10:30 AM 53.2°F11.8°C 39.7°F4.3°C 60% 7.5 mph W12.1 kmh W 21.8 mph35.1 kmh 29.55 in1000.7 mb 0.00 in0.0 mm 0.00 in0.0 mm 0.08 in2.0 mm
10:45 AM 53.4°F11.9°C 39.0°F3.9°C 58% 4.8 mph W7.7 kmh W 17.1 mph27.5 kmh 29.55 in1000.7 mb 0.00 in0.0 mm 0.00 in0.0 mm 0.08 in2.0 mm
11:00 AM 53.4°F11.9°C 38.1°F3.4°C 56% 6.7 mph W10.8 kmh W 23.8 mph38.3 kmh 29.57 in1001.4 mb 0.00 in0.0 mm 0.00 in0.0 mm 0.08 in2.0 mm
11:15 AM 53.6°F12.0°C 37.8°F3.2°C 55% 3.9 mph W6.3 kmh W 23.8 mph38.3 kmh 29.57 in1001.4 mb 0.00 in0.0 mm 0.00 in0.0 mm 0.08 in2.0 mm
11:30 AM 54.1°F12.3°C 37.4°F3.0°C 53% 6.7 mph W10.8 kmh W 21.8 mph35.1 kmh 29.57 in1001.4 mb 0.00 in0.0 mm 0.00 in0.0 mm 0.08 in2.0 mm
11:45 AM 54.9°F12.7°C 37.1°F2.8°C 51% 5.6 mph W9.0 kmh W 14.3 mph23.0 kmh 29.57 in1001.4 mb 0.00 in0.0 mm 0.00 in0.0 mm 0.08 in2.0 mm
12:00 PM 55.2°F12.9°C 35.9°F2.2°C 48% 7.5 mph W12.1 kmh W 21.0 mph33.8 kmh 29.58 in1001.7 mb 0.00 in0.0 mm 0.00 in0.0 mm 0.08 in2.0 mm
12:15 PM 54.5°F12.5°C 34.7°F1.5°C 47% 5.6 mph W9.0 kmh W 16.2 mph26.1 kmh 29.58 in1001.7 mb 0.00 in0.0 mm 0.00 in0.0 mm 0.08 in2.0 mm
12:30 PM 54.1°F12.3°C 34.9°F1.6°C 48% 4.8 mph W7.7 kmh W 11.5 mph18.5 kmh 29.58 in1001.7 mb 0.00 in0.0 mm 0.00 in0.0 mm 0.08 in2.0 mm
12:45 PM 53.8°F12.1°C 33.5°F0.8°C 46% 5.6 mph W9.0 kmh W 16.2 mph26.1 kmh 29.58 in1001.7 mb 0.00 in0.0 mm 0.00 in0.0 mm 0.08 in2.0 mm
01:00 PM 54.3°F12.4°C 31.7°F-0.2°C 42% 3.9 mph W6.3 kmh W 21.8 mph35.1 kmh 29.58 in1001.7 mb 0.00 in0.0 mm 0.00 in0.0 mm 0.08 in2.0 mm
01:15 PM 54.1°F12.3°C 31.0°F-0.6°C 41% 4.8 mph W7.7 kmh W 18.2 mph29.3 kmh 29.58 in1001.7 mb 0.00 in0.0 mm 0.00 in0.0 mm 0.08 in2.0 mm
01:30 PM 54.9°F12.7°C 32.2°F0.1°C 42% 2.8 mph W4.5 kmh W 14.3 mph23.0 kmh 29.58 in1001.7 mb 0.00 in0.0 mm 0.00 in0.0 mm 0.08 in2.0 mm
01:45 PM 54.1°F12.3°C 32.7°F0.4°C 44% 2.8 mph W4.5 kmh W 17.1 mph27.5 kmh 29.57 in1001.4 mb 0.00 in0.0 mm 0.00 in0.0 mm 0.08 in2.0 mm
02:00 PM 57.0°F13.9°C 32.9°F0.5°C 40% 7.5 mph W12.1 kmh W 21.8 mph35.1 kmh 29.57 in1001.4 mb 0.00 in0.0 mm 0.00 in0.0 mm 0.08 in2.0 mm
02:15 PM 57.2°F14.0°C 30.5°F-0.8°C 36% 3.9 mph W6.3 kmh W 21.0 mph33.8 kmh 29.57 in1001.4 mb 0.00 in0.0 mm 0.00 in0.0 mm 0.08 in2.0 mm
02:30 PM 56.3°F13.5°C 29.0°F-1.7°C 35% 2.0 mph W3.2 kmh W 15.1 mph24.3 kmh 29.57 in1001.4 mb 0.00 in0.0 mm 0.00 in0.0 mm 0.08 in2.0 mm
02:45 PM 55.8°F13.2°C 30.6°F-0.8°C 38% 2.0 mph W3.2 kmh W 14.3 mph23.0 kmh 29.58 in1001.7 mb 0.00 in0.0 mm 0.00 in0.0 mm 0.08 in2.0 mm
03:00 PM 56.1°F13.4°C 32.1°F0.1°C 40% 2.0 mph W3.2 kmh W 17.1 mph27.5 kmh 29.58 in1001.7 mb 0.00 in0.0 mm 0.00 in0.0 mm 0.08 in2.0 mm
03:15 PM 55.9°F13.3°C 31.4°F-0.3°C 39% 0.8 mph W1.3 kmh W 17.1 mph27.5 kmh 29.59 in1002.0 mb 0.00 in0.0 mm 0.00 in0.0 mm 0.08 in2.0 mm
03:30 PM 55.2°F12.9°C 30.1°F-1.1°C 38% 2.8 mph W4.5 kmh W 14.3 mph23.0 kmh 29.59 in1002.0 mb 0.00 in0.0 mm 0.00 in0.0 mm 0.08 in2.0 mm
03:45 PM 55.2°F12.9°C 29.4°F-1.4°C 37% 2.8 mph W4.5 kmh W 18.2 mph29.3 kmh 29.59 in1002.0 mb 0.00 in0.0 mm 0.00 in0.0 mm 0.08 in2.0 mm
04:00 PM 55.2°F12.9°C 28.7°F-1.8°C 36% 3.9 mph W6.3 kmh W 12.3 mph19.8 kmh 29.58 in1001.7 mb 0.00 in0.0 mm 0.00 in0.0 mm 0.08 in2.0 mm
04:15 PM 54.9°F12.7°C 28.4°F-2.0°C 36% 3.9 mph W6.3 kmh W 14.3 mph23.0 kmh 29.58 in1001.7 mb 0.00 in0.0 mm 0.00 in0.0 mm 0.08 in2.0 mm
04:30 PM 53.8°F12.1°C 28.1°F-2.2°C 37% 0.8 mph W1.3 kmh W 6.7 mph10.8 kmh 29.59 in1002.0 mb 0.00 in0.0 mm 0.00 in0.0 mm 0.08 in2.0 mm
04:45 PM 53.1°F11.7°C 28.1°F-2.2°C 38% 2.0 mph W3.2 kmh W 6.7 mph10.8 kmh 29.60 in1002.4 mb 0.00 in0.0 mm 0.00 in0.0 mm 0.08 in2.0 mm
05:00 PM 52.7°F11.5°C 27.8°F-2.3°C 38% 2.0 mph W3.2 kmh W 11.5 mph18.5 kmh 29.60 in1002.4 mb 0.00 in0.0 mm 0.00 in0.0 mm 0.08 in2.0 mm
05:15 PM 52.2°F11.2°C 27.3°F-2.6°C 38% 3.9 mph W6.3 kmh W 8.7 mph14.0 kmh 29.61 in1002.7 mb 0.00 in0.0 mm 0.00 in0.0 mm 0.08 in2.0 mm
05:30 PM 51.4°F10.8°C 26.7°F-2.9°C 38% 4.8 mph W7.7 kmh W 10.3 mph16.6 kmh 29.61 in1002.7 mb 0.00 in0.0 mm 0.00 in0.0 mm 0.08 in2.0 mm
05:45 PM 50.5°F10.3°C 26.5°F-3.1°C 39% 2.8 mph W4.5 kmh W 8.7 mph14.0 kmh 29.62 in1003.0 mb 0.00 in0.0 mm 0.00 in0.0 mm 0.08 in2.0 mm
06:00 PM 49.6°F9.8°C 26.3°F-3.2°C 40% 3.9 mph W6.3 kmh W 12.3 mph19.8 kmh 29.63 in1003.4 mb 0.00 in0.0 mm 0.00 in0.0 mm 0.08 in2.0 mm
06:15 PM 49.1°F9.5°C 25.8°F-3.4°C 40% 2.8 mph W4.5 kmh W 9.5 mph15.3 kmh 29.63 in1003.4 mb 0.00 in0.0 mm 0.00 in0.0 mm 0.08 in2.0 mm
06:30 PM 48.6°F9.2°C 25.9°F-3.4°C 41% 2.0 mph W3.2 kmh W 9.5 mph15.3 kmh 29.64 in1003.7 mb 0.00 in0.0 mm 0.00 in0.0 mm 0.08 in2.0 mm
06:45 PM 47.7°F8.7°C 25.1°F-3.8°C 41% 2.8 mph W4.5 kmh W 12.3 mph19.8 kmh 29.65 in1004.1 mb 0.00 in0.0 mm 0.00 in0.0 mm 0.08 in2.0 mm
07:00 PM 47.1°F8.4°C 25.2°F-3.8°C 42% 5.6 mph W9.0 kmh W 12.3 mph19.8 kmh 29.66 in1004.4 mb 0.00 in0.0 mm 0.00 in0.0 mm 0.08 in2.0 mm
07:15 PM 46.4°F8.0°C 25.7°F-3.5°C 44% 5.6 mph W9.0 kmh W 15.1 mph24.3 kmh 29.68 in1005.1 mb 0.00 in0.0 mm 0.00 in0.0 mm 0.08 in2.0 mm
07:30 PM 45.3°F7.4°C 25.2°F-3.8°C 45% 3.9 mph W6.3 kmh W 11.5 mph18.5 kmh 29.68 in1005.1 mb 0.00 in0.0 mm 0.00 in0.0 mm 0.08 in2.0 mm
07:45 PM 44.4°F6.9°C 24.4°F-4.2°C 45% 3.9 mph W6.3 kmh W 13.4 mph21.6 kmh 29.69 in1005.4 mb 0.00 in0.0 mm 0.00 in0.0 mm 0.08 in2.0 mm
08:00 PM 43.7°F6.5°C 24.3°F-4.3°C 46% 2.8 mph W4.5 kmh W 12.3 mph19.8 kmh 29.70 in1005.8 mb 0.00 in0.0 mm 0.00 in0.0 mm 0.08 in2.0 mm
08:15 PM 43.2°F6.2°C 24.8°F-4.0°C 48% 5.6 mph W9.0 kmh W 15.1 mph24.3 kmh 29.70 in1005.8 mb 0.00 in0.0 mm 0.00 in0.0 mm 0.08 in2.0 mm
08:30 PM 42.6°F5.9°C 24.8°F-4.0°C 49% 3.9 mph W6.3 kmh W 19.0 mph30.6 kmh 29.71 in1006.1 mb 0.00 in0.0 mm 0.00 in0.0 mm 0.08 in2.0 mm
08:45 PM 42.1°F5.6°C 25.3°F-3.7°C 51% 4.8 mph W7.7 kmh W 16.2 mph26.1 kmh 29.71 in1006.1 mb 0.00 in0.0 mm 0.00 in0.0 mm 0.08 in2.0 mm
09:00 PM 41.4°F5.2°C 25.5°F-3.6°C 53% 3.9 mph W6.3 kmh W 12.3 mph19.8 kmh 29.72 in1006.4 mb 0.00 in0.0 mm 0.00 in0.0 mm 0.08 in2.0 mm
09:15 PM 41.0°F5.0°C 25.6°F-3.6°C 54% 2.8 mph W4.5 kmh W 12.3 mph19.8 kmh 29.72 in1006.4 mb 0.00 in0.0 mm 0.00 in0.0 mm 0.08 in2.0 mm
09:30 PM 40.5°F4.7°C 25.6°F-3.6°C 55% 2.8 mph W4.5 kmh W 17.1 mph27.5 kmh 29.73 in1006.8 mb 0.00 in0.0 mm 0.00 in0.0 mm 0.08 in2.0 mm
09:45 PM 39.9°F4.4°C 25.5°F-3.6°C 56% 2.0 mph W3.2 kmh W 12.3 mph19.8 kmh 29.73 in1006.8 mb 0.00 in0.0 mm 0.00 in0.0 mm 0.08 in2.0 mm
10:00 PM 39.2°F4.0°C 25.3°F-3.7°C 57% 3.9 mph W6.3 kmh W 12.3 mph19.8 kmh 29.74 in1007.1 mb 0.00 in0.0 mm 0.00 in0.0 mm 0.08 in2.0 mm
10:15 PM 38.8°F3.8°C 24.9°F-3.9°C 57% 2.8 mph W4.5 kmh W 12.3 mph19.8 kmh 29.75 in1007.5 mb 0.00 in0.0 mm 0.00 in0.0 mm 0.08 in2.0 mm
10:30 PM 38.1°F3.4°C 24.7°F-4.1°C 58% 3.9 mph W6.3 kmh W 11.5 mph18.5 kmh 29.76 in1007.8 mb 0.00 in0.0 mm 0.00 in0.0 mm 0.08 in2.0 mm
10:45 PM 37.8°F3.2°C 24.7°F-4.1°C 59% 2.8 mph W4.5 kmh W 18.2 mph29.3 kmh 29.76 in1007.8 mb 0.00 in0.0 mm 0.00 in0.0 mm 0.08 in2.0 mm
11:00 PM 37.4°F3.0°C 24.4°F-4.2°C 59% 3.9 mph W6.3 kmh W 10.3 mph16.6 kmh 29.77 in1008.1 mb 0.00 in0.0 mm 0.00 in0.0 mm 0.08 in2.0 mm
11:15 PM 37.9°F3.3°C 25.3°F-3.7°C 60% 2.8 mph W4.5 kmh W 12.3 mph19.8 kmh 29.78 in1008.5 mb 0.00 in0.0 mm 0.00 in0.0 mm 0.08 in2.0 mm
11:30 PM 36.7°F2.6°C 24.9°F-3.9°C 62% 2.0 mph W3.2 kmh W 15.1 mph24.3 kmh 29.79 in1008.8 mb 0.00 in0.0 mm 0.00 in0.0 mm 0.08 in2.0 mm
11:45 PM 36.3°F2.4°C 25.0°F-3.9°C 63% 2.8 mph W4.5 kmh W 11.5 mph18.5 kmh 29.79 in1008.8 mb 0.00 in0.0 mm 0.00 in0.0 mm 0.08 in2.0 mm